Gaziantep, Turkey
Current Conditions -  °F | °C
As of 4:20 AM on Tuesday 25 Nov 2014 (Local Time) from LTAJ Reporting Station
Broken Clouds Broken Clouds  
Wind Chill: 43°   Ceiling: 8000
Heat Index: 43°   Visibility: 6mi
Dew Point: 39°   Wind: 0mph
Humidity: 87%   Direction: NA
Pressure: 30"   Gusts: NA
Location:  37.07°N, 37.39°E
Report Text: LTAJ 250120Z 00000KT 9999 SCT030 BKN080 06/04 Q1016 NOSIG
Loading
Personal Weather Stations






























Interactive Weather Map New forecast layout! Learn more

10-Day Weather Forecast

Advertisements
Track Severe Weather on mobile